sensor_id;sensor_type;location;lat;lon;timestamp;temperature;humidity
1476;DHT22;730;48.870;12.542;2023-07-22T00:00:22;17.10;1.00
1476;DHT22;730;48.870;12.542;2023-07-22T00:02:48;17.00;1.00
1476;DHT22;730;48.870;12.542;2023-07-22T00:05:14;17.00;1.00
1476;DHT22;730;48.870;12.542;2023-07-22T00:07:40;17.00;1.00
1476;DHT22;730;48.870;12.542;2023-07-22T00:10:09;16.90;1.00
1476;DHT22;730;48.870;12.542;2023-07-22T00:12:35;16.90;1.00
1476;DHT22;730;48.870;12.542;2023-07-22T00:15:01;16.90;1.00
1476;DHT22;730;48.870;12.542;2023-07-22T00:17:28;16.80;1.00
1476;DHT22;730;48.870;12.542;2023-07-22T00:19:55;16.80;1.00
1476;DHT22;730;48.870;12.542;2023-07-22T00:22:21;16.80;1.00
1476;DHT22;730;48.870;12.542;2023-07-22T00:24:47;16.70;1.00
1476;DHT22;730;48.870;12.542;2023-07-22T00:27:14;16.70;1.00
1476;DHT22;730;48.870;12.542;2023-07-22T00:29:40;16.60;1.00
1476;DHT22;730;48.870;12.542;2023-07-22T00:32:07;16.60;1.00
1476;DHT22;730;48.870;12.542;2023-07-22T00:34:35;16.50;1.00
1476;DHT22;730;48.870;12.542;2023-07-22T00:37:01;16.50;1.00
1476;DHT22;730;48.870;12.542;2023-07-22T00:39:27;16.40;1.00
1476;DHT22;730;48.870;12.542;2023-07-22T00:41:53;16.30;1.00
1476;DHT22;730;48.870;12.542;2023-07-22T00:44:19;16.30;1.00
1476;DHT22;730;48.870;12.542;2023-07-22T00:46:45;16.20;1.00
1476;DHT22;730;48.870;12.542;2023-07-22T00:49:14;16.20;1.00
1476;DHT22;730;48.870;12.542;2023-07-22T00:51:40;16.10;1.00
1476;DHT22;730;48.870;12.542;2023-07-22T00:54:06;16.00;1.00
1476;DHT22;730;48.870;12.542;2023-07-22T00:56:36;16.00;1.00
1476;DHT22;730;48.870;12.542;2023-07-22T00:59:02;15.90;1.00
1476;DHT22;730;48.870;12.542;2023-07-22T01:01:28;15.90;1.00
1476;DHT22;730;48.870;12.542;2023-07-22T01:03:55;15.90;1.00
1476;DHT22;730;48.870;12.542;2023-07-22T01:06:21;15.80;1.00
1476;DHT22;730;48.870;12.542;2023-07-22T01:08:48;15.80;1.00
1476;DHT22;730;48.870;12.542;2023-07-22T01:11:14;15.80;1.00
1476;DHT22;730;48.870;12.542;2023-07-22T01:13:41;15.80;1.00
1476;DHT22;730;48.870;12.542;2023-07-22T01:16:07;15.70;1.00
1476;DHT22;730;48.870;12.542;2023-07-22T01:18:33;15.80;1.00
1476;DHT22;730;48.870;12.542;2023-07-22T01:21:00;15.80;1.00
1476;DHT22;730;48.870;12.542;2023-07-22T01:23:26;15.70;1.00
1476;DHT22;730;48.870;12.542;2023-07-22T01:25:53;15.70;1.00
1476;DHT22;730;48.870;12.542;2023-07-22T01:28:21;15.70;1.00
1476;DHT22;730;48.870;12.542;2023-07-22T01:30:47;15.60;1.00
1476;DHT22;730;48.870;12.542;2023-07-22T01:33:14;15.60;1.00
1476;DHT22;730;48.870;12.542;2023-07-22T01:35:40;15.60;1.00
1476;DHT22;730;48.870;12.542;2023-07-22T01:38:06;15.60;1.00
1476;DHT22;730;48.870;12.542;2023-07-22T01:40:34;15.50;1.00
1476;DHT22;730;48.870;12.542;2023-07-22T01:43:00;15.50;1.00
1476;DHT22;730;48.870;12.542;2023-07-22T01:45:26;15.50;1.00
1476;DHT22;730;48.870;12.542;2023-07-22T01:47:53;15.50;1.00
1476;DHT22;730;48.870;12.542;2023-07-22T01:50:19;15.50;1.00
1476;DHT22;730;48.870;12.542;2023-07-22T01:52:45;15.50;1.00
1476;DHT22;730;48.870;12.542;2023-07-22T01:55:17;15.50;1.00
1476;DHT22;730;48.870;12.542;2023-07-22T01:57:44;15.40;1.00
1476;DHT22;730;48.870;12.542;2023-07-22T02:00:10;15.40;1.00
1476;DHT22;730;48.870;12.542;2023-07-22T02:02:37;15.40;1.00
1476;DHT22;730;48.870;12.542;2023-07-22T02:05:03;15.40;1.00
1476;DHT22;730;48.870;12.542;2023-07-22T02:07:29;15.40;1.00
1476;DHT22;730;48.870;12.542;2023-07-22T02:09:55;15.30;1.00
1476;DHT22;730;48.870;12.542;2023-07-22T02:12:21;15.30;1.00
1476;DHT22;730;48.870;12.542;2023-07-22T02:14:52;15.30;1.00
1476;DHT22;730;48.870;12.542;2023-07-22T02:17:18;15.30;1.00
1476;DHT22;730;48.870;12.542;2023-07-22T02:19:46;15.30;1.00
1476;DHT22;730;48.870;12.542;2023-07-22T02:22:12;15.30;1.00
1476;DHT22;730;48.870;12.542;2023-07-22T02:24:38;15.30;1.00
1476;DHT22;730;48.870;12.542;2023-07-22T02:27:05;15.30;1.00
1476;DHT22;730;48.870;12.542;2023-07-22T02:29:31;15.20;1.00
1476;DHT22;730;48.870;12.542;2023-07-22T02:31:58;15.20;1.00
1476;DHT22;730;48.870;12.542;2023-07-22T02:34:24;15.20;1.00
1476;DHT22;730;48.870;12.542;2023-07-22T02:36:50;15.10;1.00
1476;DHT22;730;48.870;12.542;2023-07-22T02:39:16;15.10;1.00
1476;DHT22;730;48.870;12.542;2023-07-22T02:41:42;15.00;1.00
1476;DHT22;730;48.870;12.542;2023-07-22T02:44:08;15.00;1.00
1476;DHT22;730;48.870;12.542;2023-07-22T02:46:34;15.00;1.00
1476;DHT22;730;48.870;12.542;2023-07-22T02:49:00;15.00;1.00
1476;DHT22;730;48.870;12.542;2023-07-22T02:51:26;15.00;1.00
1476;DHT22;730;48.870;12.542;2023-07-22T02:53:52;15.00;1.00
1476;DHT22;730;48.870;12.542;2023-07-22T02:56:19;15.00;1.00
1476;DHT22;730;48.870;12.542;2023-07-22T02:58:45;14.90;1.00
1476;DHT22;730;48.870;12.542;2023-07-22T03:01:11;14.90;1.00
1476;DHT22;730;48.870;12.542;2023-07-22T03:03:37;14.80;1.00
1476;DHT22;730;48.870;12.542;2023-07-22T03:06:04;14.90;1.00
1476;DHT22;730;48.870;12.542;2023-07-22T03:08:30;14.90;1.00
1476;DHT22;730;48.870;12.542;2023-07-22T03:10:56;14.90;1.00
1476;DHT22;730;48.870;12.542;2023-07-22T03:13:22;14.90;1.00
1476;DHT22;730;48.870;12.542;2023-07-22T03:15:48;14.90;1.00
1476;DHT22;730;48.870;12.542;2023-07-22T03:18:14;14.90;1.00
1476;DHT22;730;48.870;12.542;2023-07-22T03:20:40;14.90;1.00
1476;DHT22;730;48.870;12.542;2023-07-22T03:23:07;14.90;1.00
1476;DHT22;730;48.870;12.542;2023-07-22T03:25:34;14.90;1.00
1476;DHT22;730;48.870;12.542;2023-07-22T03:28:03;14.90;1.00
1476;DHT22;730;48.870;12.542;2023-07-22T03:30:31;14.80;1.00
1476;DHT22;730;48.870;12.542;2023-07-22T03:32:57;14.80;1.00
1476;DHT22;730;48.870;12.542;2023-07-22T03:35:23;14.70;1.00
1476;DHT22;730;48.870;12.542;2023-07-22T03:37:49;14.60;1.00
1476;DHT22;730;48.870;12.542;2023-07-22T03:40:16;14.50;1.00
1476;DHT22;730;48.870;12.542;2023-07-22T03:42:48;14.50;1.00
1476;DHT22;730;48.870;12.542;2023-07-22T03:45:14;14.40;1.00
1476;DHT22;730;48.870;12.542;2023-07-22T03:47:40;14.30;1.00
1476;DHT22;730;48.870;12.542;2023-07-22T03:50:07;14.30;1.00
1476;DHT22;730;48.870;12.542;2023-07-22T03:52:33;14.30;1.00
1476;DHT22;730;48.870;12.542;2023-07-22T03:55:00;14.20;1.00
1476;DHT22;730;48.870;12.542;2023-07-22T03:57:27;14.20;1.00
1476;DHT22;730;48.870;12.542;2023-07-22T03:59:54;14.10;1.00
1476;DHT22;730;48.870;12.542;2023-07-22T04:02:20;14.10;1.00
1476;DHT22;730;48.870;12.542;2023-07-22T04:04:46;14.10;1.00
1476;DHT22;730;48.870;12.542;2023-07-22T04:07:12;14.10;1.00
1476;DHT22;730;48.870;12.542;2023-07-22T04:09:38;14.00;1.00
1476;DHT22;730;48.870;12.542;2023-07-22T04:12:06;14.10;1.00
1476;DHT22;730;48.870;12.542;2023-07-22T04:14:33;14.10;1.00
1476;DHT22;730;48.870;12.542;2023-07-22T04:16:59;14.10;1.00
1476;DHT22;730;48.870;12.542;2023-07-22T04:19:25;14.10;1.00
1476;DHT22;730;48.870;12.542;2023-07-22T04:21:51;14.00;1.00
1476;DHT22;730;48.870;12.542;2023-07-22T04:24:17;14.10;1.00
1476;DHT22;730;48.870;12.542;2023-07-22T04:26:44;14.10;1.00
1476;DHT22;730;48.870;12.542;2023-07-22T04:29:10;14.10;1.00
1476;DHT22;730;48.870;12.542;2023-07-22T04:31:38;14.20;1.00
1476;DHT22;730;48.870;12.542;2023-07-22T04:34:05;14.20;1.00
1476;DHT22;730;48.870;12.542;2023-07-22T04:36:33;14.30;1.00
1476;DHT22;730;48.870;12.542;2023-07-22T04:38:59;14.40;1.00
1476;DHT22;730;48.870;12.542;2023-07-22T04:41:26;14.40;1.00
1476;DHT22;730;48.870;12.542;2023-07-22T04:43:52;14.40;1.00
1476;DHT22;730;48.870;12.542;2023-07-22T04:46:18;14.50;1.00
1476;DHT22;730;48.870;12.542;2023-07-22T04:48:44;14.50;1.00
1476;DHT22;730;48.870;12.542;2023-07-22T04:51:11;14.60;1.00
1476;DHT22;730;48.870;12.542;2023-07-22T04:53:37;14.70;1.00
1476;DHT22;730;48.870;12.542;2023-07-22T04:56:03;14.70;1.00
1476;DHT22;730;48.870;12.542;2023-07-22T04:58:29;14.80;1.00
1476;DHT22;730;48.870;12.542;2023-07-22T05:00:58;14.90;1.00
1476;DHT22;730;48.870;12.542;2023-07-22T05:03:24;15.00;1.00
1476;DHT22;730;48.870;12.542;2023-07-22T05:05:53;15.10;1.00
1476;DHT22;730;48.870;12.542;2023-07-22T05:08:19;15.20;1.00
1476;DHT22;730;48.870;12.542;2023-07-22T05:10:46;15.40;1.00
1476;DHT22;730;48.870;12.542;2023-07-22T05:13:14;15.50;1.00
1476;DHT22;730;48.870;12.542;2023-07-22T05:15:40;15.60;1.00
1476;DHT22;730;48.870;12.542;2023-07-22T05:18:06;15.80;1.00
1476;DHT22;730;48.870;12.542;2023-07-22T05:20:32;15.90;1.00
1476;DHT22;730;48.870;12.542;2023-07-22T05:22:58;16.10;1.00
1476;DHT22;730;48.870;12.542;2023-07-22T05:25:24;16.30;1.00
1476;DHT22;730;48.870;12.542;2023-07-22T05:27:50;16.50;1.00
1476;DHT22;730;48.870;12.542;2023-07-22T05:30:16;16.80;1.00
1476;DHT22;730;48.870;12.542;2023-07-22T05:32:52;17.00;1.00
1476;DHT22;730;48.870;12.542;2023-07-22T05:35:18;17.30;1.00
1476;DHT22;730;48.870;12.542;2023-07-22T05:37:44;17.60;1.00
1476;DHT22;730;48.870;12.542;2023-07-22T05:40:11;17.80;1.00
1476;DHT22;730;48.870;12.542;2023-07-22T05:42:37;18.10;1.00
1476;DHT22;730;48.870;12.542;2023-07-22T05:45:03;18.40;1.00
1476;DHT22;730;48.870;12.542;2023-07-22T05:47:30;18.70;1.00
1476;DHT22;730;48.870;12.542;2023-07-22T05:49:57;19.00;1.00
1476;DHT22;730;48.870;12.542;2023-07-22T05:52:23;19.30;1.00
1476;DHT22;730;48.870;12.542;2023-07-22T05:54:49;19.60;1.00
1476;DHT22;730;48.870;12.542;2023-07-22T05:57:15;19.90;1.00
1476;DHT22;730;48.870;12.542;2023-07-22T05:59:41;20.20;1.00
1476;DHT22;730;48.870;12.542;2023-07-22T06:02:09;20.50;1.00
1476;DHT22;730;48.870;12.542;2023-07-22T06:04:36;20.70;1.00
1476;DHT22;730;48.870;12.542;2023-07-22T06:07:02;21.10;1.00
1476;DHT22;730;48.870;12.542;2023-07-22T06:09:28;21.30;1.00
1476;DHT22;730;48.870;12.542;2023-07-22T06:11:54;21.50;1.00
1476;DHT22;730;48.870;12.542;2023-07-22T06:14:20;21.80;1.00
1476;DHT22;730;48.870;12.542;2023-07-22T06:16:46;22.10;1.00
1476;DHT22;730;48.870;12.542;2023-07-22T06:19:12;22.30;1.00
1476;DHT22;730;48.870;12.542;2023-07-22T06:21:38;22.60;1.00
1476;DHT22;730;48.870;12.542;2023-07-22T06:24:05;22.80;1.00
1476;DHT22;730;48.870;12.542;2023-07-22T06:26:31;23.10;1.00
1476;DHT22;730;48.870;12.542;2023-07-22T06:29:03;23.50;1.00
1476;DHT22;730;48.870;12.542;2023-07-22T06:31:29;23.70;1.00
1476;DHT22;730;48.870;12.542;2023-07-22T06:33:57;23.90;1.00
1476;DHT22;730;48.870;12.542;2023-07-22T06:36:23;24.20;1.00
1476;DHT22;730;48.870;12.542;2023-07-22T06:38:50;24.50;1.00
1476;DHT22;730;48.870;12.542;2023-07-22T06:41:16;24.80;1.00
1476;DHT22;730;48.870;12.542;2023-07-22T06:43:42;25.00;1.00
1476;DHT22;730;48.870;12.542;2023-07-22T06:46:08;25.30;1.00
1476;DHT22;730;48.870;12.542;2023-07-22T06:48:34;25.60;1.00
1476;DHT22;730;48.870;12.542;2023-07-22T06:51:00;25.80;1.00
1476;DHT22;730;48.870;12.542;2023-07-22T06:53:26;26.10;1.00
1476;DHT22;730;48.870;12.542;2023-07-22T06:55:52;26.30;1.00
1476;DHT22;730;48.870;12.542;2023-07-22T06:58:21;26.50;1.00
1476;DHT22;730;48.870;12.542;2023-07-22T07:00:54;26.70;1.00
1476;DHT22;730;48.870;12.542;2023-07-22T07:03:22;26.90;1.00
1476;DHT22;730;48.870;12.542;2023-07-22T07:05:53;27.10;1.00
1476;DHT22;730;48.870;12.542;2023-07-22T07:08:24;27.30;1.00
1476;DHT22;730;48.870;12.542;2023-07-22T07:10:50;27.50;1.00
1476;DHT22;730;48.870;12.542;2023-07-22T07:13:17;27.70;1.00
1476;DHT22;730;48.870;12.542;2023-07-22T07:15:47;27.70;1.00
1476;DHT22;730;48.870;12.542;2023-07-22T07:18:16;27.50;1.00
1476;DHT22;730;48.870;12.542;2023-07-22T07:20:43;27.40;1.00
1476;DHT22;730;48.870;12.542;2023-07-22T07:23:09;27.40;1.00
1476;DHT22;730;48.870;12.542;2023-07-22T07:25:35;27.40;1.00
1476;DHT22;730;48.870;12.542;2023-07-22T07:28:02;27.40;1.00
1476;DHT22;730;48.870;12.542;2023-07-22T07:30:29;27.50;1.00
1476;DHT22;730;48.870;12.542;2023-07-22T07:32:55;27.70;1.00
1476;DHT22;730;48.870;12.542;2023-07-22T07:35:21;27.90;1.00
1476;DHT22;730;48.870;12.542;2023-07-22T07:37:47;28.10;1.00
1476;DHT22;730;48.870;12.542;2023-07-22T07:40:13;28.30;1.00
1476;DHT22;730;48.870;12.542;2023-07-22T07:42:39;28.50;1.00
1476;DHT22;730;48.870;12.542;2023-07-22T07:45:06;28.80;1.00
1476;DHT22;730;48.870;12.542;2023-07-22T07:47:32;29.00;1.00
1476;DHT22;730;48.870;12.542;2023-07-22T07:49:58;29.10;1.00
1476;DHT22;730;48.870;12.542;2023-07-22T07:52:24;29.30;1.00
1476;DHT22;730;48.870;12.542;2023-07-22T07:54:50;29.50;1.00
1476;DHT22;730;48.870;12.542;2023-07-22T07:57:17;29.60;1.00
1476;DHT22;730;48.870;12.542;2023-07-22T07:59:43;29.70;1.00
1476;DHT22;730;48.870;12.542;2023-07-22T08:02:09;29.80;1.00
1476;DHT22;730;48.870;12.542;2023-07-22T08:04:36;29.90;1.00
1476;DHT22;730;48.870;12.542;2023-07-22T08:07:03;29.90;1.00
1476;DHT22;730;48.870;12.542;2023-07-22T08:09:30;30.00;1.00
1476;DHT22;730;48.870;12.542;2023-07-22T08:11:56;29.70;1.00
1476;DHT22;730;48.870;12.542;2023-07-22T08:14:22;29.40;1.00
1476;DHT22;730;48.870;12.542;2023-07-22T08:16:48;29.30;1.00
1476;DHT22;730;48.870;12.542;2023-07-22T08:19:14;29.30;1.00
1476;DHT22;730;48.870;12.542;2023-07-22T08:21:40;29.50;1.00
1476;DHT22;730;48.870;12.542;2023-07-22T08:24:06;29.60;1.00
1476;DHT22;730;48.870;12.542;2023-07-22T08:26:33;29.70;1.00
1476;DHT22;730;48.870;12.542;2023-07-22T08:28:59;29.80;1.00
1476;DHT22;730;48.870;12.542;2023-07-22T08:31:25;29.90;1.00
1476;DHT22;730;48.870;12.542;2023-07-22T08:33:51;29.60;1.00
1476;DHT22;730;48.870;12.542;2023-07-22T08:36:17;29.50;1.00
1476;DHT22;730;48.870;12.542;2023-07-22T08:38:43;29.40;1.00
1476;DHT22;730;48.870;12.542;2023-07-22T08:41:13;29.30;1.00
1476;DHT22;730;48.870;12.542;2023-07-22T08:43:40;29.20;1.00
1476;DHT22;730;48.870;12.542;2023-07-22T08:46:07;29.30;1.00
1476;DHT22;730;48.870;12.542;2023-07-22T08:48:36;29.50;1.00
1476;DHT22;730;48.870;12.542;2023-07-22T08:51:09;29.80;1.00
1476;DHT22;730;48.870;12.542;2023-07-22T08:53:37;30.00;1.00
1476;DHT22;730;48.870;12.542;2023-07-22T08:56:04;30.40;1.00
1476;DHT22;730;48.870;12.542;2023-07-22T08:58:30;30.60;1.00
1476;DHT22;730;48.870;12.542;2023-07-22T09:00:57;30.90;1.00
1476;DHT22;730;48.870;12.542;2023-07-22T09:03:24;31.10;1.00
1476;DHT22;730;48.870;12.542;2023-07-22T09:05:50;31.20;1.00
1476;DHT22;730;48.870;12.542;2023-07-22T09:08:18;31.10;1.00
1476;DHT22;730;48.870;12.542;2023-07-22T09:10:44;31.10;1.00
1476;DHT22;730;48.870;12.542;2023-07-22T09:13:12;31.20;1.00
1476;DHT22;730;48.870;12.542;2023-07-22T09:15:39;31.20;1.00
1476;DHT22;730;48.870;12.542;2023-07-22T09:18:05;31.40;1.00
1476;DHT22;730;48.870;12.542;2023-07-22T09:20:31;31.20;1.00
1476;DHT22;730;48.870;12.542;2023-07-22T09:22:59;31.20;1.00
1476;DHT22;730;48.870;12.542;2023-07-22T09:25:27;31.10;1.00
1476;DHT22;730;48.870;12.542;2023-07-22T09:27:55;31.00;1.00
1476;DHT22;730;48.870;12.542;2023-07-22T09:30:34;30.60;1.00
1476;DHT22;730;48.870;12.542;2023-07-22T09:33:02;30.40;1.00
1476;DHT22;730;48.870;12.542;2023-07-22T09:35:47;30.40;1.00
1476;DHT22;730;48.870;12.542;2023-07-22T09:38:14;30.40;1.00
1476;DHT22;730;48.870;12.542;2023-07-22T09:40:47;30.60;1.00
1476;DHT22;730;48.870;12.542;2023-07-22T09:43:14;30.80;1.00
1476;DHT22;730;48.870;12.542;2023-07-22T09:45:40;31.10;1.00
1476;DHT22;730;48.870;12.542;2023-07-22T09:48:08;31.30;1.00
1476;DHT22;730;48.870;12.542;2023-07-22T09:50:36;31.50;1.00
1476;DHT22;730;48.870;12.542;2023-07-22T09:53:02;31.40;1.00
1476;DHT22;730;48.870;12.542;2023-07-22T09:55:30;31.40;1.00
1476;DHT22;730;48.870;12.542;2023-07-22T09:58:01;31.40;1.00
1476;DHT22;730;48.870;12.542;2023-07-22T10:00:35;31.40;1.00
1476;DHT22;730;48.870;12.542;2023-07-22T10:03:02;31.30;1.00
1476;DHT22;730;48.870;12.542;2023-07-22T10:05:34;31.30;1.00
1476;DHT22;730;48.870;12.542;2023-07-22T10:08:02;31.20;1.00
1476;DHT22;730;48.870;12.542;2023-07-22T10:10:32;31.20;1.00
1476;DHT22;730;48.870;12.542;2023-07-22T10:12:58;31.10;1.00
1476;DHT22;730;48.870;12.542;2023-07-22T10:15:34;31.20;1.00
1476;DHT22;730;48.870;12.542;2023-07-22T10:18:02;31.10;1.00
1476;DHT22;730;48.870;12.542;2023-07-22T10:20:29;31.00;1.00
1476;DHT22;730;48.870;12.542;2023-07-22T10:22:55;30.80;1.00
1476;DHT22;730;48.870;12.542;2023-07-22T10:25:22;30.70;1.00
1476;DHT22;730;48.870;12.542;2023-07-22T10:27:50;30.80;1.00
1476;DHT22;730;48.870;12.542;2023-07-22T10:30:17;30.90;1.00
1476;DHT22;730;48.870;12.542;2023-07-22T10:32:49;31.10;1.00
1476;DHT22;730;48.870;12.542;2023-07-22T10:40:32;30.80;1.00
1476;DHT22;730;48.870;12.542;2023-07-22T10:43:09;30.80;1.00
1476;DHT22;730;48.870;12.542;2023-07-22T10:45:57;30.80;1.00
1476;DHT22;730;48.870;12.542;2023-07-22T10:48:29;30.80;1.00
1476;DHT22;730;48.870;12.542;2023-07-22T10:51:15;30.90;1.00
1476;DHT22;730;48.870;12.542;2023-07-22T10:53:46;31.00;1.00
1476;DHT22;730;48.870;12.542;2023-07-22T10:56:18;31.10;1.00
1476;DHT22;730;48.870;12.542;2023-07-22T11:04:26;31.30;1.00
1476;DHT22;730;48.870;12.542;2023-07-22T11:06:59;31.30;1.00
1476;DHT22;730;48.870;12.542;2023-07-22T11:14:41;30.60;1.00
1476;DHT22;730;48.870;12.542;2023-07-22T11:17:10;30.00;1.00
1476;DHT22;730;48.870;12.542;2023-07-22T11:19:37;29.80;1.00
1476;DHT22;730;48.870;12.542;2023-07-22T11:22:04;29.70;1.00
1476;DHT22;730;48.870;12.542;2023-07-22T11:24:31;29.70;1.00
1476;DHT22;730;48.870;12.542;2023-07-22T11:26:58;29.40;1.00
1476;DHT22;730;48.870;12.542;2023-07-22T11:29:24;29.50;1.00
1476;DHT22;730;48.870;12.542;2023-07-22T11:31:50;29.70;1.00
1476;DHT22;730;48.870;12.542;2023-07-22T11:34:22;30.00;1.00
1476;DHT22;730;48.870;12.542;2023-07-22T11:36:49;30.30;1.00
1476;DHT22;730;48.870;12.542;2023-07-22T11:39:20;30.50;1.00
1476;DHT22;730;48.870;12.542;2023-07-22T11:41:48;30.40;1.00
1476;DHT22;730;48.870;12.542;2023-07-22T11:44:16;29.80;1.00
1476;DHT22;730;48.870;12.542;2023-07-22T11:47:00;29.50;1.00
1476;DHT22;730;48.870;12.542;2023-07-22T11:49:30;29.20;1.00
1476;DHT22;730;48.870;12.542;2023-07-22T11:52:03;29.10;1.00
1476;DHT22;730;48.870;12.542;2023-07-22T11:54:32;29.10;1.00
1476;DHT22;730;48.870;12.542;2023-07-22T11:57:13;29.20;1.00
1476;DHT22;730;48.870;12.542;2023-07-22T11:59:47;29.40;1.00
1476;DHT22;730;48.870;12.542;2023-07-22T12:04:57;29.60;1.00
1476;DHT22;730;48.870;12.542;2023-07-22T12:07:25;29.80;1.00
1476;DHT22;730;48.870;12.542;2023-07-22T12:09:53;30.10;1.00
1476;DHT22;730;48.870;12.542;2023-07-22T12:12:20;30.30;1.00
1476;DHT22;730;48.870;12.542;2023-07-22T12:14:46;30.60;1.00
1476;DHT22;730;48.870;12.542;2023-07-22T12:17:12;30.60;1.00
1476;DHT22;730;48.870;12.542;2023-07-22T12:19:38;30.60;1.00
1476;DHT22;730;48.870;12.542;2023-07-22T12:22:16;30.70;1.00
1476;DHT22;730;48.870;12.542;2023-07-22T12:24:42;30.80;1.00
1476;DHT22;730;48.870;12.542;2023-07-22T12:27:08;31.00;1.00
1476;DHT22;730;48.870;12.542;2023-07-22T12:29:34;31.10;1.00
1476;DHT22;730;48.870;12.542;2023-07-22T12:32:00;31.10;1.00
1476;DHT22;730;48.870;12.542;2023-07-22T12:34:26;31.00;1.00
1476;DHT22;730;48.870;12.542;2023-07-22T12:36:52;31.00;1.00
1476;DHT22;730;48.870;12.542;2023-07-22T12:39:18;31.00;1.00
1476;DHT22;730;48.870;12.542;2023-07-22T12:41:44;31.00;1.00
1476;DHT22;730;48.870;12.542;2023-07-22T12:44:10;31.00;1.00
1476;DHT22;730;48.870;12.542;2023-07-22T12:46:36;31.10;1.00
1476;DHT22;730;48.870;12.542;2023-07-22T12:49:02;30.90;1.00
1476;DHT22;730;48.870;12.542;2023-07-22T12:51:28;30.80;1.00
1476;DHT22;730;48.870;12.542;2023-07-22T12:53:54;30.80;1.00
1476;DHT22;730;48.870;12.542;2023-07-22T12:56:20;30.90;1.00
1476;DHT22;730;48.870;12.542;2023-07-22T12:58:46;31.20;1.00
1476;DHT22;730;48.870;12.542;2023-07-22T13:01:12;31.50;1.00
1476;DHT22;730;48.870;12.542;2023-07-22T13:03:39;31.70;1.00
1476;DHT22;730;48.870;12.542;2023-07-22T13:06:06;32.00;1.00
1476;DHT22;730;48.870;12.542;2023-07-22T13:08:32;32.30;1.00
1476;DHT22;730;48.870;12.542;2023-07-22T13:10:58;32.00;1.00
1476;DHT22;730;48.870;12.542;2023-07-22T13:13:24;32.10;1.00
1476;DHT22;730;48.870;12.542;2023-07-22T13:15:50;32.30;1.00
1476;DHT22;730;48.870;12.542;2023-07-22T13:18:16;32.70;1.00
1476;DHT22;730;48.870;12.542;2023-07-22T13:20:42;33.00;1.00
1476;DHT22;730;48.870;12.542;2023-07-22T13:23:13;33.30;1.00
1476;DHT22;730;48.870;12.542;2023-07-22T13:25:39;33.60;1.00
1476;DHT22;730;48.870;12.542;2023-07-22T13:28:05;33.90;1.00
1476;DHT22;730;48.870;12.542;2023-07-22T13:30:31;34.30;1.00
1476;DHT22;730;48.870;12.542;2023-07-22T13:32:57;34.60;1.00
1476;DHT22;730;48.870;12.542;2023-07-22T13:35:23;34.90;1.00
1476;DHT22;730;48.870;12.542;2023-07-22T13:37:49;34.90;1.00
1476;DHT22;730;48.870;12.542;2023-07-22T13:40:16;34.80;1.00
1476;DHT22;730;48.870;12.542;2023-07-22T13:42:42;34.70;1.00
1476;DHT22;730;48.870;12.542;2023-07-22T13:45:08;33.80;1.00
1476;DHT22;730;48.870;12.542;2023-07-22T13:47:34;33.60;1.00
1476;DHT22;730;48.870;12.542;2023-07-22T13:50:00;33.40;1.00
1476;DHT22;730;48.870;12.542;2023-07-22T13:52:30;33.50;1.00
1476;DHT22;730;48.870;12.542;2023-07-22T13:54:56;33.80;1.00
1476;DHT22;730;48.870;12.542;2023-07-22T13:57:22;33.50;1.00
1476;DHT22;730;48.870;12.542;2023-07-22T13:59:48;33.30;1.00
1476;DHT22;730;48.870;12.542;2023-07-22T14:02:14;33.20;1.00
1476;DHT22;730;48.870;12.542;2023-07-22T14:04:40;32.90;1.00
1476;DHT22;730;48.870;12.542;2023-07-22T14:07:06;33.50;1.00
1476;DHT22;730;48.870;12.542;2023-07-22T14:09:32;34.00;1.00
1476;DHT22;730;48.870;12.542;2023-07-22T14:11:59;34.00;1.00
1476;DHT22;730;48.870;12.542;2023-07-22T14:14:25;34.10;1.00
1476;DHT22;730;48.870;12.542;2023-07-22T14:16:55;34.10;1.00
1476;DHT22;730;48.870;12.542;2023-07-22T14:19:21;34.30;1.00
1476;DHT22;730;48.870;12.542;2023-07-22T14:21:47;34.80;1.00
1476;DHT22;730;48.870;12.542;2023-07-22T14:24:13;35.30;1.00
1476;DHT22;730;48.870;12.542;2023-07-22T14:26:39;36.10;1.00
1476;DHT22;730;48.870;12.542;2023-07-22T14:29:05;36.90;1.00
1476;DHT22;730;48.870;12.542;2023-07-22T14:31:31;37.50;1.00
1476;DHT22;730;48.870;12.542;2023-07-22T14:33:57;37.80;1.00
1476;DHT22;730;48.870;12.542;2023-07-22T14:36:23;38.00;1.00
1476;DHT22;730;48.870;12.542;2023-07-22T14:38:50;37.90;1.00
1476;DHT22;730;48.870;12.542;2023-07-22T14:41:16;37.40;1.00
1476;DHT22;730;48.870;12.542;2023-07-22T14:43:42;36.50;1.00
1476;DHT22;730;48.870;12.542;2023-07-22T14:46:08;35.80;1.00
1476;DHT22;730;48.870;12.542;2023-07-22T14:48:34;34.80;1.00
1476;DHT22;730;48.870;12.542;2023-07-22T14:51:00;34.30;1.00
1476;DHT22;730;48.870;12.542;2023-07-22T14:53:26;33.80;1.00
1476;DHT22;730;48.870;12.542;2023-07-22T14:55:52;33.10;1.00
1476;DHT22;730;48.870;12.542;2023-07-22T14:58:18;33.10;1.00
1476;DHT22;730;48.870;12.542;2023-07-22T15:00:44;33.00;1.00
1476;DHT22;730;48.870;12.542;2023-07-22T15:03:10;32.90;1.00
1476;DHT22;730;48.870;12.542;2023-07-22T15:05:36;32.70;1.00
1476;DHT22;730;48.870;12.542;2023-07-22T15:08:02;32.50;1.00
1476;DHT22;730;48.870;12.542;2023-07-22T15:10:32;32.30;1.00
1476;DHT22;730;48.870;12.542;2023-07-22T15:12:58;32.20;1.00
1476;DHT22;730;48.870;12.542;2023-07-22T15:15:24;32.20;1.00
1476;DHT22;730;48.870;12.542;2023-07-22T15:17:50;32.20;1.00
1476;DHT22;730;48.870;12.542;2023-07-22T15:20:16;31.80;1.00
1476;DHT22;730;48.870;12.542;2023-07-22T15:22:42;31.90;1.00
1476;DHT22;730;48.870;12.542;2023-07-22T15:25:18;31.90;1.00
1476;DHT22;730;48.870;12.542;2023-07-22T15:27:45;32.10;1.00
1476;DHT22;730;48.870;12.542;2023-07-22T15:30:11;32.20;1.00
1476;DHT22;730;48.870;12.542;2023-07-22T15:32:38;32.30;1.00
1476;DHT22;730;48.870;12.542;2023-07-22T15:35:05;32.40;1.00
1476;DHT22;730;48.870;12.542;2023-07-22T15:37:32;32.40;1.00
1476;DHT22;730;48.870;12.542;2023-07-22T15:39:58;32.20;1.00
1476;DHT22;730;48.870;12.542;2023-07-22T15:42:24;32.10;1.00
1476;DHT22;730;48.870;12.542;2023-07-22T15:44:50;31.70;1.00
1476;DHT22;730;48.870;12.542;2023-07-22T15:47:16;31.20;1.00
1476;DHT22;730;48.870;12.542;2023-07-22T15:49:42;30.90;1.00
1476;DHT22;730;48.870;12.542;2023-07-22T15:52:08;30.80;1.00
1476;DHT22;730;48.870;12.542;2023-07-22T15:54:34;30.70;1.00
1476;DHT22;730;48.870;12.542;2023-07-22T15:57:00;30.70;1.00
1476;DHT22;730;48.870;12.542;2023-07-22T15:59:26;30.60;1.00
1476;DHT22;730;48.870;12.542;2023-07-22T16:01:52;30.50;1.00
1476;DHT22;730;48.870;12.542;2023-07-22T16:04:18;30.50;1.00
1476;DHT22;730;48.870;12.542;2023-07-22T16:06:45;30.50;1.00
1476;DHT22;730;48.870;12.542;2023-07-22T16:09:11;30.50;1.00
1476;DHT22;730;48.870;12.542;2023-07-22T16:11:37;30.50;1.00
1476;DHT22;730;48.870;12.542;2023-07-22T16:14:03;30.30;1.00
1476;DHT22;730;48.870;12.542;2023-07-22T16:16:29;30.20;1.00
1476;DHT22;730;48.870;12.542;2023-07-22T16:18:55;30.20;1.00
1476;DHT22;730;48.870;12.542;2023-07-22T16:21:21;30.10;1.00
1476;DHT22;730;48.870;12.542;2023-07-22T16:23:47;30.10;1.00
1476;DHT22;730;48.870;12.542;2023-07-22T16:26:14;30.10;1.00
1476;DHT22;730;48.870;12.542;2023-07-22T16:28:40;29.90;1.00
1476;DHT22;730;48.870;12.542;2023-07-22T16:31:06;29.80;1.00
1476;DHT22;730;48.870;12.542;2023-07-22T16:33:32;29.70;1.00